LGKR

Details ICAO LGKR (CFU)
Name IOANNIS KAPODISTRIAS INTL
Region Greece
Timezone Europe/Athens (UTC+2.0)
Plans Departing 986
Arriving 1443
Stats Elevation 0 ft / 0 m (AMSL)
Location 39.602300° 19.912000°
Runways 1
Magnetic Variation 4.217° E
Sunrise 2019-02-20 05:28:21 UTC / 2019-02-20 07:28:21 Local
Sunset 2019-02-20 16:22:50 UTC / 2019-02-20 18:22:50 Local
Advertisement - Login to hide

Runways

ID Width Length Bearing (true/mag) Surface Threshold Overrun Markings Lighting
17 148 ft / 45 m 7,604 ft / 2,318 m 168.78° / 164.57° ASPHALT 1,342 ft / 409 m 0 ft / 0 m PREC-APP EDGE THRESHOLD ALSF-I
35 148 ft / 45 m 7,604 ft / 2,318 m 348.79° / 344.57° ASPHALT 0 ft / 0 m 0 ft / 0 m PREC-APP EDGE THRESHOLD SALS REIL-OMNI

Map

Weather


0- 5 10 15 20 25 30 35+ Temperature / °C

Clouds and Precipitation
Forecast for 2019-02-21 00:00 UTC. Updated 32 minutes ago

Ground ~20,000 ft ~40,000 ft Winds

METAR

LGKR 202150Z 27003KT 9999 FEW020 08/06 Q1022 NOSIG

TAF

TAF LGKR 201700Z 2018/2118 VRB03KT 9999 SCT025 PROB30 2100/2106 5000 BR SCT010

Frequencies

Clearance 120.85 MHz KERKIRA CLD
Recorded 126.35 MHz ATIS
Tower 120.85 MHz KERKIRA TWR
Approach 122.10 MHz KERKIRA APP
Approach 122.35 MHz KERKIRA APP
Ground 121.70 MHz KERKIRA GND
Warning: Do not use this data for real-world aviation or navigation. No guarantee of current accuracy is given.